sensor_id;sensor_type;location;lat;lon;timestamp;P1;durP1;ratioP1;P2;durP2;ratioP2
2416;SDS011;1219;48.736;9.330;2022-10-16T00:01:06;6.03;;;2.70;;
2416;SDS011;1219;48.736;9.330;2022-10-16T00:03:33;4.57;;;2.97;;
2416;SDS011;1219;48.736;9.330;2022-10-16T00:05:59;6.43;;;2.87;;
2416;SDS011;1219;48.736;9.330;2022-10-16T00:08:25;4.37;;;2.73;;
2416;SDS011;1219;48.736;9.330;2022-10-16T00:10:52;4.47;;;2.90;;
2416;SDS011;1219;48.736;9.330;2022-10-16T00:13:18;7.00;;;3.10;;
2416;SDS011;1219;48.736;9.330;2022-10-16T00:15:45;4.23;;;2.50;;
2416;SDS011;1219;48.736;9.330;2022-10-16T00:18:11;3.00;;;2.80;;
2416;SDS011;1219;48.736;9.330;2022-10-16T00:20:39;2.80;;;2.60;;
2416;SDS011;1219;48.736;9.330;2022-10-16T00:23:05;6.50;;;2.90;;
2416;SDS011;1219;48.736;9.330;2022-10-16T00:25:31;5.37;;;3.50;;
2416;SDS011;1219;48.736;9.330;2022-10-16T00:27:58;8.57;;;3.50;;
2416;SDS011;1219;48.736;9.330;2022-10-16T00:30:24;7.13;;;3.40;;
2416;SDS011;1219;48.736;9.330;2022-10-16T00:32:52;3.83;;;2.97;;
2416;SDS011;1219;48.736;9.330;2022-10-16T00:35:18;4.23;;;3.47;;
2416;SDS011;1219;48.736;9.330;2022-10-16T00:37:44;3.00;;;2.80;;
2416;SDS011;1219;48.736;9.330;2022-10-16T00:40:10;7.77;;;3.30;;
2416;SDS011;1219;48.736;9.330;2022-10-16T00:42:36;3.07;;;2.87;;
2416;SDS011;1219;48.736;9.330;2022-10-16T00:45:02;7.83;;;3.27;;
2416;SDS011;1219;48.736;9.330;2022-10-16T00:47:29;3.80;;;3.20;;
2416;SDS011;1219;48.736;9.330;2022-10-16T00:50:06;3.50;;;3.20;;
2416;SDS011;1219;48.736;9.330;2022-10-16T00:52:33;4.37;;;3.13;;
2416;SDS011;1219;48.736;9.330;2022-10-16T00:54:59;7.53;;;2.90;;
2416;SDS011;1219;48.736;9.330;2022-10-16T00:57:25;4.93;;;3.70;;
2416;SDS011;1219;48.736;9.330;2022-10-16T00:59:51;3.67;;;3.37;;
2416;SDS011;1219;48.736;9.330;2022-10-16T01:02:17;5.17;;;3.50;;
2416;SDS011;1219;48.736;9.330;2022-10-16T01:04:47;3.47;;;3.17;;
2416;SDS011;1219;48.736;9.330;2022-10-16T01:12:39;5.37;;;3.00;;
2416;SDS011;1219;48.736;9.330;2022-10-16T01:15:17;3.40;;;3.10;;
2416;SDS011;1219;48.736;9.330;2022-10-16T01:17:47;2.93;;;2.70;;
2416;SDS011;1219;48.736;9.330;2022-10-16T01:20:24;5.83;;;3.70;;
2416;SDS011;1219;48.736;9.330;2022-10-16T01:25:39;4.27;;;2.70;;
2416;SDS011;1219;48.736;9.330;2022-10-16T01:28:08;2.47;;;2.27;;
2416;SDS011;1219;48.736;9.330;2022-10-16T01:30:36;9.90;;;2.60;;
2416;SDS011;1219;48.736;9.330;2022-10-16T01:33:22;4.23;;;2.30;;
2416;SDS011;1219;48.736;9.330;2022-10-16T01:35:52;2.43;;;2.23;;
2416;SDS011;1219;48.736;9.330;2022-10-16T01:38:21;3.20;;;2.20;;
2416;SDS011;1219;48.736;9.330;2022-10-16T01:40:53;4.60;;;2.47;;
2416;SDS011;1219;48.736;9.330;2022-10-16T01:43:22;6.43;;;2.07;;
2416;SDS011;1219;48.736;9.330;2022-10-16T01:45:50;2.30;;;2.10;;
2416;SDS011;1219;48.736;9.330;2022-10-16T01:48:17;2.73;;;2.50;;
2416;SDS011;1219;48.736;9.330;2022-10-16T01:50:44;3.97;;;2.33;;
2416;SDS011;1219;48.736;9.330;2022-10-16T01:53:15;2.30;;;2.20;;
2416;SDS011;1219;48.736;9.330;2022-10-16T01:55:43;2.47;;;2.27;;
2416;SDS011;1219;48.736;9.330;2022-10-16T01:58:10;4.30;;;2.30;;
2416;SDS011;1219;48.736;9.330;2022-10-16T02:00:38;3.20;;;2.50;;
2416;SDS011;1219;48.736;9.330;2022-10-16T02:03:05;4.17;;;3.03;;
2416;SDS011;1219;48.736;9.330;2022-10-16T02:05:39;3.07;;;2.47;;
2416;SDS011;1219;48.736;9.330;2022-10-16T02:08:06;3.20;;;2.70;;
2416;SDS011;1219;48.736;9.330;2022-10-16T02:10:32;5.87;;;2.77;;
2416;SDS011;1219;48.736;9.330;2022-10-16T02:13:06;2.90;;;2.60;;
2416;SDS011;1219;48.736;9.330;2022-10-16T02:15:33;5.80;;;3.10;;
2416;SDS011;1219;48.736;9.330;2022-10-16T02:17:59;3.40;;;3.03;;
2416;SDS011;1219;48.736;9.330;2022-10-16T02:20:27;3.60;;;2.60;;
2416;SDS011;1219;48.736;9.330;2022-10-16T02:22:53;3.23;;;2.57;;
2416;SDS011;1219;48.736;9.330;2022-10-16T02:27:59;5.60;;;2.60;;
2416;SDS011;1219;48.736;9.330;2022-10-16T02:30:29;3.77;;;2.70;;
2416;SDS011;1219;48.736;9.330;2022-10-16T02:32:56;12.53;;;3.60;;
2416;SDS011;1219;48.736;9.330;2022-10-16T02:35:23;4.80;;;3.30;;
2416;SDS011;1219;48.736;9.330;2022-10-16T02:37:50;2.90;;;2.67;;
2416;SDS011;1219;48.736;9.330;2022-10-16T02:40:16;8.23;;;2.80;;
2416;SDS011;1219;48.736;9.330;2022-10-16T02:42:43;7.40;;;3.10;;
2416;SDS011;1219;48.736;9.330;2022-10-16T02:45:10;3.33;;;2.60;;
2416;SDS011;1219;48.736;9.330;2022-10-16T02:47:36;4.17;;;3.03;;
2416;SDS011;1219;48.736;9.330;2022-10-16T02:50:03;5.17;;;2.80;;
2416;SDS011;1219;48.736;9.330;2022-10-16T02:52:29;5.27;;;3.50;;
2416;SDS011;1219;48.736;9.330;2022-10-16T02:54:55;5.63;;;3.23;;
2416;SDS011;1219;48.736;9.330;2022-10-16T02:57:21;3.73;;;3.20;;
2416;SDS011;1219;48.736;9.330;2022-10-16T02:59:47;9.17;;;3.00;;
2416;SDS011;1219;48.736;9.330;2022-10-16T03:02:13;5.70;;;2.37;;
2416;SDS011;1219;48.736;9.330;2022-10-16T03:04:39;7.00;;;3.00;;
2416;SDS011;1219;48.736;9.330;2022-10-16T03:07:04;4.03;;;2.30;;
2416;SDS011;1219;48.736;9.330;2022-10-16T03:09:30;7.80;;;2.77;;
2416;SDS011;1219;48.736;9.330;2022-10-16T03:11:56;10.67;;;3.63;;
2416;SDS011;1219;48.736;9.330;2022-10-16T03:14:22;3.33;;;2.63;;
2416;SDS011;1219;48.736;9.330;2022-10-16T03:16:48;3.07;;;2.50;;
2416;SDS011;1219;48.736;9.330;2022-10-16T03:19:15;3.23;;;2.33;;
2416;SDS011;1219;48.736;9.330;2022-10-16T03:21:42;2.50;;;2.23;;
2416;SDS011;1219;48.736;9.330;2022-10-16T03:24:08;3.07;;;2.77;;
2416;SDS011;1219;48.736;9.330;2022-10-16T03:26:33;6.07;;;3.10;;
2416;SDS011;1219;48.736;9.330;2022-10-16T03:28:59;5.30;;;2.57;;
2416;SDS011;1219;48.736;9.330;2022-10-16T03:31:27;3.07;;;2.33;;
2416;SDS011;1219;48.736;9.330;2022-10-16T03:33:53;2.37;;;1.97;;
2416;SDS011;1219;48.736;9.330;2022-10-16T03:36:19;6.80;;;3.27;;
2416;SDS011;1219;48.736;9.330;2022-10-16T03:38:45;6.43;;;2.70;;
2416;SDS011;1219;48.736;9.330;2022-10-16T03:41:11;2.27;;;2.03;;
2416;SDS011;1219;48.736;9.330;2022-10-16T03:43:37;4.17;;;3.03;;
2416;SDS011;1219;48.736;9.330;2022-10-16T03:46:03;5.73;;;2.40;;
2416;SDS011;1219;48.736;9.330;2022-10-16T03:48:29;6.70;;;2.53;;
2416;SDS011;1219;48.736;9.330;2022-10-16T03:50:55;2.30;;;2.10;;
2416;SDS011;1219;48.736;9.330;2022-10-16T03:53:21;4.13;;;2.33;;
2416;SDS011;1219;48.736;9.330;2022-10-16T03:55:47;8.33;;;2.40;;
2416;SDS011;1219;48.736;9.330;2022-10-16T03:58:13;3.60;;;2.20;;
2416;SDS011;1219;48.736;9.330;2022-10-16T04:00:40;2.63;;;2.43;;
2416;SDS011;1219;48.736;9.330;2022-10-16T04:03:06;2.57;;;2.37;;
2416;SDS011;1219;48.736;9.330;2022-10-16T04:05:32;4.40;;;2.93;;
2416;SDS011;1219;48.736;9.330;2022-10-16T04:07:58;2.50;;;2.30;;
2416;SDS011;1219;48.736;9.330;2022-10-16T04:10:24;3.50;;;2.00;;
2416;SDS011;1219;48.736;9.330;2022-10-16T04:12:50;3.17;;;2.00;;
2416;SDS011;1219;48.736;9.330;2022-10-16T04:15:16;4.20;;;2.40;;
2416;SDS011;1219;48.736;9.330;2022-10-16T04:17:42;2.70;;;2.30;;
2416;SDS011;1219;48.736;9.330;2022-10-16T04:20:08;6.00;;;2.30;;
2416;SDS011;1219;48.736;9.330;2022-10-16T04:22:34;3.97;;;2.13;;
2416;SDS011;1219;48.736;9.330;2022-10-16T04:25:00;6.27;;;2.57;;
2416;SDS011;1219;48.736;9.330;2022-10-16T04:27:26;3.70;;;1.83;;
2416;SDS011;1219;48.736;9.330;2022-10-16T04:29:53;2.47;;;2.27;;
2416;SDS011;1219;48.736;9.330;2022-10-16T04:32:19;8.20;;;3.20;;
2416;SDS011;1219;48.736;9.330;2022-10-16T04:34:45;4.03;;;2.40;;
2416;SDS011;1219;48.736;9.330;2022-10-16T04:37:11;3.20;;;2.20;;
2416;SDS011;1219;48.736;9.330;2022-10-16T04:39:36;2.63;;;2.13;;
2416;SDS011;1219;48.736;9.330;2022-10-16T04:42:02;3.60;;;2.20;;
2416;SDS011;1219;48.736;9.330;2022-10-16T04:44:29;2.93;;;2.10;;
2416;SDS011;1219;48.736;9.330;2022-10-16T04:46:55;2.73;;;2.20;;
2416;SDS011;1219;48.736;9.330;2022-10-16T04:49:20;2.40;;;2.20;;
2416;SDS011;1219;48.736;9.330;2022-10-16T04:51:46;3.17;;;2.30;;
2416;SDS011;1219;48.736;9.330;2022-10-16T04:54:12;5.40;;;2.80;;
2416;SDS011;1219;48.736;9.330;2022-10-16T04:56:38;4.93;;;2.13;;
2416;SDS011;1219;48.736;9.330;2022-10-16T04:59:11;4.70;;;2.30;;
2416;SDS011;1219;48.736;9.330;2022-10-16T05:01:37;3.83;;;2.10;;
2416;SDS011;1219;48.736;9.330;2022-10-16T05:04:03;2.83;;;2.20;;
2416;SDS011;1219;48.736;9.330;2022-10-16T05:06:29;2.50;;;2.30;;
2416;SDS011;1219;48.736;9.330;2022-10-16T05:08:55;2.20;;;2.03;;
2416;SDS011;1219;48.736;9.330;2022-10-16T05:11:21;2.63;;;2.43;;
2416;SDS011;1219;48.736;9.330;2022-10-16T05:13:47;3.20;;;2.60;;
2416;SDS011;1219;48.736;9.330;2022-10-16T05:16:13;2.70;;;2.50;;
2416;SDS011;1219;48.736;9.330;2022-10-16T05:18:39;5.53;;;2.87;;
2416;SDS011;1219;48.736;9.330;2022-10-16T05:21:04;3.90;;;3.27;;
2416;SDS011;1219;48.736;9.330;2022-10-16T05:23:31;11.83;;;2.77;;
2416;SDS011;1219;48.736;9.330;2022-10-16T05:25:57;4.00;;;2.60;;
2416;SDS011;1219;48.736;9.330;2022-10-16T05:28:27;4.43;;;2.27;;
2416;SDS011;1219;48.736;9.330;2022-10-16T05:30:53;2.43;;;2.23;;
2416;SDS011;1219;48.736;9.330;2022-10-16T05:33:20;6.43;;;2.53;;
2416;SDS011;1219;48.736;9.330;2022-10-16T05:35:46;6.13;;;2.63;;
2416;SDS011;1219;48.736;9.330;2022-10-16T05:38:12;2.60;;;2.40;;
2416;SDS011;1219;48.736;9.330;2022-10-16T05:40:38;6.30;;;2.47;;
2416;SDS011;1219;48.736;9.330;2022-10-16T05:43:04;4.83;;;2.27;;
2416;SDS011;1219;48.736;9.330;2022-10-16T05:45:30;3.80;;;2.30;;
2416;SDS011;1219;48.736;9.330;2022-10-16T05:47:56;5.50;;;2.63;;
2416;SDS011;1219;48.736;9.330;2022-10-16T05:50:22;8.10;;;2.40;;
2416;SDS011;1219;48.736;9.330;2022-10-16T05:52:48;2.80;;;2.33;;
2416;SDS011;1219;48.736;9.330;2022-10-16T05:55:14;4.87;;;2.33;;
2416;SDS011;1219;48.736;9.330;2022-10-16T05:57:40;4.30;;;2.67;;
2416;SDS011;1219;48.736;9.330;2022-10-16T06:00:06;5.70;;;2.63;;
2416;SDS011;1219;48.736;9.330;2022-10-16T06:02:32;2.73;;;2.33;;
2416;SDS011;1219;48.736;9.330;2022-10-16T06:04:58;3.33;;;2.07;;
2416;SDS011;1219;48.736;9.330;2022-10-16T06:07:24;3.77;;;2.67;;
2416;SDS011;1219;48.736;9.330;2022-10-16T06:09:51;2.50;;;2.30;;
2416;SDS011;1219;48.736;9.330;2022-10-16T06:12:17;2.40;;;2.20;;
2416;SDS011;1219;48.736;9.330;2022-10-16T06:14:44;5.20;;;2.60;;
2416;SDS011;1219;48.736;9.330;2022-10-16T06:17:10;3.80;;;2.40;;
2416;SDS011;1219;48.736;9.330;2022-10-16T06:19:35;3.67;;;2.30;;
2416;SDS011;1219;48.736;9.330;2022-10-16T06:22:01;2.30;;;2.10;;
2416;SDS011;1219;48.736;9.330;2022-10-16T06:24:29;2.90;;;2.53;;
2416;SDS011;1219;48.736;9.330;2022-10-16T06:26:55;11.47;;;2.50;;
2416;SDS011;1219;48.736;9.330;2022-10-16T06:29:21;3.23;;;2.60;;
2416;SDS011;1219;48.736;9.330;2022-10-16T06:31:47;3.23;;;2.93;;
2416;SDS011;1219;48.736;9.330;2022-10-16T06:34:13;3.60;;;2.60;;
2416;SDS011;1219;48.736;9.330;2022-10-16T06:36:39;7.93;;;2.80;;
2416;SDS011;1219;48.736;9.330;2022-10-16T06:39:06;3.13;;;2.67;;
2416;SDS011;1219;48.736;9.330;2022-10-16T06:41:32;7.10;;;2.83;;
2416;SDS011;1219;48.736;9.330;2022-10-16T06:43:58;2.67;;;2.57;;
2416;SDS011;1219;48.736;9.330;2022-10-16T06:46:24;9.60;;;3.20;;
2416;SDS011;1219;48.736;9.330;2022-10-16T06:48:51;3.17;;;2.87;;
2416;SDS011;1219;48.736;9.330;2022-10-16T06:51:18;3.40;;;3.13;;
2416;SDS011;1219;48.736;9.330;2022-10-16T06:53:45;3.60;;;3.20;;
2416;SDS011;1219;48.736;9.330;2022-10-16T06:56:18;3.60;;;2.80;;
2416;SDS011;1219;48.736;9.330;2022-10-16T06:58:44;3.83;;;2.90;;
2416;SDS011;1219;48.736;9.330;2022-10-16T07:01:11;9.23;;;4.80;;
2416;SDS011;1219;48.736;9.330;2022-10-16T07:03:37;17.20;;;10.50;;
2416;SDS011;1219;48.736;9.330;2022-10-16T07:06:04;4.40;;;3.20;;
2416;SDS011;1219;48.736;9.330;2022-10-16T07:08:30;13.23;;;6.00;;
2416;SDS011;1219;48.736;9.330;2022-10-16T07:10:58;17.30;;;11.23;;
2416;SDS011;1219;48.736;9.330;2022-10-16T07:13:24;19.27;;;11.70;;
2416;SDS011;1219;48.736;9.330;2022-10-16T07:15:50;16.90;;;11.20;;
2416;SDS011;1219;48.736;9.330;2022-10-16T07:18:16;13.90;;;8.73;;
2416;SDS011;1219;48.736;9.330;2022-10-16T07:20:42;5.57;;;4.33;;
2416;SDS011;1219;48.736;9.330;2022-10-16T07:23:08;4.53;;;4.10;;
2416;SDS011;1219;48.736;9.330;2022-10-16T07:25:34;3.67;;;3.37;;
2416;SDS011;1219;48.736;9.330;2022-10-16T07:28:00;3.10;;;2.80;;
2416;SDS011;1219;48.736;9.330;2022-10-16T07:30:25;5.40;;;2.83;;
2416;SDS011;1219;48.736;9.330;2022-10-16T07:32:51;6.30;;;2.77;;
2416;SDS011;1219;48.736;9.330;2022-10-16T07:35:17;2.87;;;2.67;;
2416;SDS011;1219;48.736;9.330;2022-10-16T07:37:44;2.67;;;2.47;;
2416;SDS011;1219;48.736;9.330;2022-10-16T07:40:10;6.30;;;2.77;;
2416;SDS011;1219;48.736;9.330;2022-10-16T07:42:37;7.33;;;2.63;;
2416;SDS011;1219;48.736;9.330;2022-10-16T07:45:03;6.27;;;2.50;;
2416;SDS011;1219;48.736;9.330;2022-10-16T07:47:29;7.07;;;3.67;;
2416;SDS011;1219;48.736;9.330;2022-10-16T07:49:55;4.13;;;2.80;;
2416;SDS011;1219;48.736;9.330;2022-10-16T07:52:21;4.00;;;3.27;;
2416;SDS011;1219;48.736;9.330;2022-10-16T07:54:47;4.00;;;3.03;;
2416;SDS011;1219;48.736;9.330;2022-10-16T07:57:13;4.37;;;3.97;;
2416;SDS011;1219;48.736;9.330;2022-10-16T07:59:44;7.13;;;2.90;;
2416;SDS011;1219;48.736;9.330;2022-10-16T08:02:10;3.37;;;3.07;;
2416;SDS011;1219;48.736;9.330;2022-10-16T08:04:36;6.43;;;2.73;;
2416;SDS011;1219;48.736;9.330;2022-10-16T08:07:02;7.07;;;2.50;;
2416;SDS011;1219;48.736;9.330;2022-10-16T08:09:28;2.77;;;2.53;;
2416;SDS011;1219;48.736;9.330;2022-10-16T08:11:54;3.77;;;2.47;;
2416;SDS011;1219;48.736;9.330;2022-10-16T08:14:20;3.33;;;2.40;;
2416;SDS011;1219;48.736;9.330;2022-10-16T08:16:45;2.70;;;2.10;;
2416;SDS011;1219;48.736;9.330;2022-10-16T08:19:11;6.63;;;2.20;;
2416;SDS011;1219;48.736;9.330;2022-10-16T08:21:37;3.77;;;2.63;;
2416;SDS011;1219;48.736;9.330;2022-10-16T08:24:03;4.40;;;2.50;;
2416;SDS011;1219;48.736;9.330;2022-10-16T08:26:29;6.07;;;2.70;;
2416;SDS011;1219;48.736;9.330;2022-10-16T08:28:55;2.77;;;2.57;;
2416;SDS011;1219;48.736;9.330;2022-10-16T08:31:21;2.93;;;2.63;;
2416;SDS011;1219;48.736;9.330;2022-10-16T08:33:48;3.60;;;2.80;;
2416;SDS011;1219;48.736;9.330;2022-10-16T08:36:14;4.83;;;3.13;;
2416;SDS011;1219;48.736;9.330;2022-10-16T08:38:41;4.83;;;2.90;;
2416;SDS011;1219;48.736;9.330;2022-10-16T08:41:19;3.17;;;2.90;;
2416;SDS011;1219;48.736;9.330;2022-10-16T08:43:54;4.43;;;2.30;;
2416;SDS011;1219;48.736;9.330;2022-10-16T08:46:24;5.73;;;2.00;;
2416;SDS011;1219;48.736;9.330;2022-10-16T08:48:57;3.57;;;2.43;;
2416;SDS011;1219;48.736;9.330;2022-10-16T08:51:26;3.83;;;2.00;;
2416;SDS011;1219;48.736;9.330;2022-10-16T08:53:54;3.30;;;2.53;;
2416;SDS011;1219;48.736;9.330;2022-10-16T08:56:21;7.23;;;2.50;;
2416;SDS011;1219;48.736;9.330;2022-10-16T08:58:47;4.67;;;2.43;;
2416;SDS011;1219;48.736;9.330;2022-10-16T09:01:14;5.00;;;2.57;;
2416;SDS011;1219;48.736;9.330;2022-10-16T09:06:12;4.53;;;2.47;;
2416;SDS011;1219;48.736;9.330;2022-10-16T09:11:44;4.10;;;2.63;;
2416;SDS011;1219;48.736;9.330;2022-10-16T09:17:04;4.53;;;2.30;;
2416;SDS011;1219;48.736;9.330;2022-10-16T09:19:41;5.93;;;2.27;;
2416;SDS011;1219;48.736;9.330;2022-10-16T09:22:12;2.20;;;2.00;;
2416;SDS011;1219;48.736;9.330;2022-10-16T09:24:39;4.80;;;2.20;;
2416;SDS011;1219;48.736;9.330;2022-10-16T09:27:12;3.37;;;1.80;;
2416;SDS011;1219;48.736;9.330;2022-10-16T09:29:39;3.63;;;2.07;;
2416;SDS011;1219;48.736;9.330;2022-10-16T09:32:12;5.10;;;3.07;;
2416;SDS011;1219;48.736;9.330;2022-10-16T09:34:52;4.97;;;1.93;;
2416;SDS011;1219;48.736;9.330;2022-10-16T09:37:21;3.70;;;1.93;;
2416;SDS011;1219;48.736;9.330;2022-10-16T09:39:57;3.50;;;2.50;;
2416;SDS011;1219;48.736;9.330;2022-10-16T09:42:33;3.23;;;1.63;;
2416;SDS011;1219;48.736;9.330;2022-10-16T09:45:00;2.70;;;2.00;;
2416;SDS011;1219;48.736;9.330;2022-10-16T09:47:27;2.43;;;1.70;;
2416;SDS011;1219;48.736;9.330;2022-10-16T09:52:20;4.53;;;2.13;;
2416;SDS011;1219;48.736;9.330;2022-10-16T09:54:56;4.20;;;1.87;;
2416;SDS011;1219;48.736;9.330;2022-10-16T09:57:24;2.43;;;1.90;;
2416;SDS011;1219;48.736;9.330;2022-10-16T09:59:59;4.20;;;2.10;;
2416;SDS011;1219;48.736;9.330;2022-10-16T10:02:34;1.57;;;1.47;;
2416;SDS011;1219;48.736;9.330;2022-10-16T10:05:00;1.70;;;1.60;;
2416;SDS011;1219;48.736;9.330;2022-10-16T10:07:28;1.70;;;1.60;;
2416;SDS011;1219;48.736;9.330;2022-10-16T10:09:58;2.83;;;1.90;;
2416;SDS011;1219;48.736;9.330;2022-10-16T10:12:29;2.10;;;1.60;;
2416;SDS011;1219;48.736;9.330;2022-10-16T10:15:10;1.60;;;1.50;;
2416;SDS011;1219;48.736;9.330;2022-10-16T10:17:48;1.50;;;1.40;;
2416;SDS011;1219;48.736;9.330;2022-10-16T10:22:50;3.90;;;1.47;;
2416;SDS011;1219;48.736;9.330;2022-10-16T10:25:22;1.73;;;1.50;;
2416;SDS011;1219;48.736;9.330;2022-10-16T10:38:31;2.90;;;1.50;;
2416;SDS011;1219;48.736;9.330;2022-10-16T10:41:15;1.63;;;1.53;;
2416;SDS011;1219;48.736;9.330;2022-10-16T10:46:32;3.17;;;1.50;;
2416;SDS011;1219;48.736;9.330;2022-10-16T10:54:26;4.77;;;1.20;;
2416;SDS011;1219;48.736;9.330;2022-10-16T10:57:10;1.90;;;1.47;;
2416;SDS011;1219;48.736;9.330;2022-10-16T11:02:35;1.87;;;1.43;;
2416;SDS011;1219;48.736;9.330;2022-10-16T11:10:29;7.30;;;1.20;;
2416;SDS011;1219;48.736;9.330;2022-10-16T11:13:04;3.90;;;1.33;;
2416;SDS011;1219;48.736;9.330;2022-10-16T11:15:33;1.83;;;1.10;;
2416;SDS011;1219;48.736;9.330;2022-10-16T11:20:47;1.77;;;1.23;;
2416;SDS011;1219;48.736;9.330;2022-10-16T11:23:16;1.60;;;1.50;;
2416;SDS011;1219;48.736;9.330;2022-10-16T11:25:44;1.50;;;1.20;;
2416;SDS011;1219;48.736;9.330;2022-10-16T11:30:54;1.63;;;1.47;;
2416;SDS011;1219;48.736;9.330;2022-10-16T11:33:26;2.10;;;1.40;;
2416;SDS011;1219;48.736;9.330;2022-10-16T11:38:36;2.03;;;1.90;;
2416;SDS011;1219;48.736;9.330;2022-10-16T11:43:43;2.43;;;1.30;;
2416;SDS011;1219;48.736;9.330;2022-10-16T11:46:12;1.30;;;1.20;;
2416;SDS011;1219;48.736;9.330;2022-10-16T11:48:39;3.30;;;1.50;;
2416;SDS011;1219;48.736;9.330;2022-10-16T11:53:46;2.40;;;1.50;;
2416;SDS011;1219;48.736;9.330;2022-10-16T11:56:15;4.30;;;1.20;;
2416;SDS011;1219;48.736;9.330;2022-10-16T12:01:43;2.40;;;1.43;;
2416;SDS011;1219;48.736;9.330;2022-10-16T12:06:42;2.87;;;1.60;;
2416;SDS011;1219;48.736;9.330;2022-10-16T12:11:54;2.40;;;1.50;;
2416;SDS011;1219;48.736;9.330;2022-10-16T12:14:22;1.60;;;1.50;;
2416;SDS011;1219;48.736;9.330;2022-10-16T12:17:04;1.93;;;1.30;;
2416;SDS011;1219;48.736;9.330;2022-10-16T12:19:59;2.33;;;1.40;;
2416;SDS011;1219;48.736;9.330;2022-10-16T12:22:27;1.70;;;1.60;;
2416;SDS011;1219;48.736;9.330;2022-10-16T12:24:54;2.17;;;1.33;;
2416;SDS011;1219;48.736;9.330;2022-10-16T12:27:27;2.70;;;1.70;;
2416;SDS011;1219;48.736;9.330;2022-10-16T12:29:55;1.90;;;1.80;;
2416;SDS011;1219;48.736;9.330;2022-10-16T12:34:51;1.73;;;1.63;;
2416;SDS011;1219;48.736;9.330;2022-10-16T12:37:21;3.37;;;1.77;;
2416;SDS011;1219;48.736;9.330;2022-10-16T12:39:48;4.17;;;3.83;;
2416;SDS011;1219;48.736;9.330;2022-10-16T12:42:33;7.23;;;2.63;;
2416;SDS011;1219;48.736;9.330;2022-10-16T12:45:00;2.00;;;1.80;;
2416;SDS011;1219;48.736;9.330;2022-10-16T12:49:55;6.43;;;1.60;;
2416;SDS011;1219;48.736;9.330;2022-10-16T12:54:59;1.83;;;1.40;;
2416;SDS011;1219;48.736;9.330;2022-10-16T13:00:13;1.90;;;1.70;;
2416;SDS011;1219;48.736;9.330;2022-10-16T13:15:36;3.30;;;1.83;;
2416;SDS011;1219;48.736;9.330;2022-10-16T13:18:14;1.60;;;1.50;;
2416;SDS011;1219;48.736;9.330;2022-10-16T13:28:48;2.73;;;1.63;;
2416;SDS011;1219;48.736;9.330;2022-10-16T13:31:18;1.93;;;1.53;;
2416;SDS011;1219;48.736;9.330;2022-10-16T13:33:46;4.67;;;1.20;;
2416;SDS011;1219;48.736;9.330;2022-10-16T13:36:23;1.37;;;1.20;;
2416;SDS011;1219;48.736;9.330;2022-10-16T13:41:34;2.90;;;1.30;;
2416;SDS011;1219;48.736;9.330;2022-10-16T13:44:00;1.87;;;1.20;;
2416;SDS011;1219;48.736;9.330;2022-10-16T13:46:26;3.83;;;1.90;;
2416;SDS011;1219;48.736;9.330;2022-10-16T13:48:57;1.50;;;1.40;;
2416;SDS011;1219;48.736;9.330;2022-10-16T13:51:24;1.43;;;1.30;;
2416;SDS011;1219;48.736;9.330;2022-10-16T13:53:50;1.60;;;1.50;;
2416;SDS011;1219;48.736;9.330;2022-10-16T13:56:17;2.00;;;1.80;;
2416;SDS011;1219;48.736;9.330;2022-10-16T13:58:43;2.60;;;1.40;;
2416;SDS011;1219;48.736;9.330;2022-10-16T14:01:16;15.17;;;13.83;;
2416;SDS011;1219;48.736;9.330;2022-10-16T14:03:43;2.70;;;2.50;;
2416;SDS011;1219;48.736;9.330;2022-10-16T14:06:19;2.50;;;1.63;;
2416;SDS011;1219;48.736;9.330;2022-10-16T14:08:50;2.60;;;1.50;;
2416;SDS011;1219;48.736;9.330;2022-10-16T14:11:22;3.43;;;1.43;;
2416;SDS011;1219;48.736;9.330;2022-10-16T14:13:48;1.90;;;1.40;;
2416;SDS011;1219;48.736;9.330;2022-10-16T14:16:19;4.30;;;1.93;;
2416;SDS011;1219;48.736;9.330;2022-10-16T14:18:46;1.70;;;1.60;;
2416;SDS011;1219;48.736;9.330;2022-10-16T14:21:15;2.60;;;1.60;;
2416;SDS011;1219;48.736;9.330;2022-10-16T14:23:41;1.73;;;1.47;;
2416;SDS011;1219;48.736;9.330;2022-10-16T14:28:35;1.80;;;1.70;;
2416;SDS011;1219;48.736;9.330;2022-10-16T14:31:02;2.10;;;1.60;;
2416;SDS011;1219;48.736;9.330;2022-10-16T14:36:01;2.03;;;1.83;;
2416;SDS011;1219;48.736;9.330;2022-10-16T14:38:27;1.70;;;1.60;;
2416;SDS011;1219;48.736;9.330;2022-10-16T14:40:54;4.83;;;1.80;;
2416;SDS011;1219;48.736;9.330;2022-10-16T14:43:25;2.70;;;1.90;;
2416;SDS011;1219;48.736;9.330;2022-10-16T14:45:52;3.30;;;1.70;;
2416;SDS011;1219;48.736;9.330;2022-10-16T14:48:19;2.30;;;1.90;;
2416;SDS011;1219;48.736;9.330;2022-10-16T14:50:46;2.90;;;1.93;;
2416;SDS011;1219;48.736;9.330;2022-10-16T14:53:12;3.83;;;1.83;;
2416;SDS011;1219;48.736;9.330;2022-10-16T14:55:38;3.33;;;1.67;;
2416;SDS011;1219;48.736;9.330;2022-10-16T14:58:05;1.93;;;1.80;;
2416;SDS011;1219;48.736;9.330;2022-10-16T15:00:31;4.10;;;1.90;;
2416;SDS011;1219;48.736;9.330;2022-10-16T15:02:57;3.90;;;2.10;;
2416;SDS011;1219;48.736;9.330;2022-10-16T15:05:24;1.97;;;1.53;;
2416;SDS011;1219;48.736;9.330;2022-10-16T15:07:51;3.17;;;2.00;;
2416;SDS011;1219;48.736;9.330;2022-10-16T15:10:18;6.23;;;2.10;;
2416;SDS011;1219;48.736;9.330;2022-10-16T15:12:45;3.13;;;2.00;;
2416;SDS011;1219;48.736;9.330;2022-10-16T15:17:37;5.10;;;1.90;;
2416;SDS011;1219;48.736;9.330;2022-10-16T15:20:03;9.03;;;1.63;;
2416;SDS011;1219;48.736;9.330;2022-10-16T15:22:29;2.93;;;2.07;;
2416;SDS011;1219;48.736;9.330;2022-10-16T15:24:55;1.83;;;1.73;;
2416;SDS011;1219;48.736;9.330;2022-10-16T15:27:21;2.40;;;2.20;;
2416;SDS011;1219;48.736;9.330;2022-10-16T15:29:47;4.03;;;2.40;;
2416;SDS011;1219;48.736;9.330;2022-10-16T15:32:13;2.00;;;1.77;;
2416;SDS011;1219;48.736;9.330;2022-10-16T15:34:39;2.30;;;2.07;;
2416;SDS011;1219;48.736;9.330;2022-10-16T15:37:05;3.83;;;1.97;;
2416;SDS011;1219;48.736;9.330;2022-10-16T15:39:31;8.33;;;2.70;;
2416;SDS011;1219;48.736;9.330;2022-10-16T15:41:56;3.03;;;2.80;;
2416;SDS011;1219;48.736;9.330;2022-10-16T15:44:22;3.20;;;2.80;;
2416;SDS011;1219;48.736;9.330;2022-10-16T15:46:51;2.97;;;2.77;;
2416;SDS011;1219;48.736;9.330;2022-10-16T15:49:20;3.50;;;3.00;;
2416;SDS011;1219;48.736;9.330;2022-10-16T15:51:46;2.73;;;2.40;;
2416;SDS011;1219;48.736;9.330;2022-10-16T15:54:12;5.30;;;2.47;;
2416;SDS011;1219;48.736;9.330;2022-10-16T15:56:38;2.40;;;2.03;;
2416;SDS011;1219;48.736;9.330;2022-10-16T15:59:04;3.80;;;2.47;;
2416;SDS011;1219;48.736;9.330;2022-10-16T16:01:33;3.80;;;2.30;;
2416;SDS011;1219;48.736;9.330;2022-10-16T16:03:59;3.00;;;2.80;;
2416;SDS011;1219;48.736;9.330;2022-10-16T16:06:25;2.90;;;2.60;;
2416;SDS011;1219;48.736;9.330;2022-10-16T16:08:51;4.17;;;2.30;;
2416;SDS011;1219;48.736;9.330;2022-10-16T16:11:18;3.17;;;2.93;;
2416;SDS011;1219;48.736;9.330;2022-10-16T16:13:44;3.77;;;2.67;;
2416;SDS011;1219;48.736;9.330;2022-10-16T16:16:11;8.33;;;3.70;;
2416;SDS011;1219;48.736;9.330;2022-10-16T16:18:39;5.23;;;2.60;;
2416;SDS011;1219;48.736;9.330;2022-10-16T16:21:05;3.00;;;2.80;;
2416;SDS011;1219;48.736;9.330;2022-10-16T16:23:31;6.03;;;3.50;;
2416;SDS011;1219;48.736;9.330;2022-10-16T16:28:29;4.00;;;3.33;;
2416;SDS011;1219;48.736;9.330;2022-10-16T16:30:55;4.37;;;3.97;;
2416;SDS011;1219;48.736;9.330;2022-10-16T16:33:21;15.40;;;9.00;;
2416;SDS011;1219;48.736;9.330;2022-10-16T16:35:47;9.53;;;7.03;;
2416;SDS011;1219;48.736;9.330;2022-10-16T16:38:13;5.60;;;5.03;;
2416;SDS011;1219;48.736;9.330;2022-10-16T16:40:39;6.60;;;4.20;;
2416;SDS011;1219;48.736;9.330;2022-10-16T16:43:05;8.77;;;5.80;;
2416;SDS011;1219;48.736;9.330;2022-10-16T16:45:33;17.40;;;9.63;;
2416;SDS011;1219;48.736;9.330;2022-10-16T16:48:00;17.43;;;9.27;;
2416;SDS011;1219;48.736;9.330;2022-10-16T16:50:26;10.23;;;6.80;;
2416;SDS011;1219;48.736;9.330;2022-10-16T16:52:52;11.20;;;7.47;;
2416;SDS011;1219;48.736;9.330;2022-10-16T16:55:18;20.80;;;18.87;;
2416;SDS011;1219;48.736;9.330;2022-10-16T16:57:44;18.20;;;16.57;;
2416;SDS011;1219;48.736;9.330;2022-10-16T17:00:13;9.13;;;7.73;;
2416;SDS011;1219;48.736;9.330;2022-10-16T17:02:39;5.87;;;5.30;;
2416;SDS011;1219;48.736;9.330;2022-10-16T17:05:08;14.50;;;5.57;;
2416;SDS011;1219;48.736;9.330;2022-10-16T17:07:34;8.70;;;5.23;;
2416;SDS011;1219;48.736;9.330;2022-10-16T17:10:00;7.13;;;6.17;;
2416;SDS011;1219;48.736;9.330;2022-10-16T17:12:28;9.90;;;7.47;;
2416;SDS011;1219;48.736;9.330;2022-10-16T17:14:54;10.57;;;7.13;;